ABP651 LKPR-DTMB
Flight info
| Callsign | ABP651 |
|---|---|
| Flight time | N/A |
| Altitude | 40000 |
| Route | VOZ4B/30 VOZ DCT PISAM DCT TAGAS DCT VAMET DCT GIRDA DCT BAXON/N0518F390 DCT GOTMO DCT PININ DCT TUNEX UG737 CBN/N0484F230 G727 ATLEL ATLEL1R |
| Aircraft | C750/M-SBDE3FGHRWXY/S |
Departure
| Time | 2026-05-01 12:35 |
|---|---|
| Airport | Václav Havel Airport Prague (LKPR) |
Arrival
| Time | N/A |
|---|---|
| Airport | Monastir Habib Bourguiba International Airport (DTMB) |
| Time | Latitude | Longitude | Altitude | Speed | Heading |
|---|---|---|---|---|---|
| 2026-05-01 12:18 | 50.09671 | 14.28204 | 1209 ft | 0 kts | 169° |
| 2026-05-01 12:28 | 50.09661 | 14.28207 | 1209 ft | 5 kts | 169° |
| 2026-05-01 12:29 | 50.09637 | 14.28227 | 1209 ft | 3 kts | 122° |
| 2026-05-01 12:29 | 50.09638 | 14.28274 | 1209 ft | 7 kts | 78° |
| 2026-05-01 12:29 | 50.09706 | 14.28483 | 1209 ft | 15 kts | 347° |
| 2026-05-01 12:30 | 50.09772 | 14.28401 | 1209 ft | 8 kts | 257° |
| 2026-05-01 12:30 | 50.09757 | 14.28292 | 1209 ft | 13 kts | 258° |
| 2026-05-01 12:30 | 50.09735 | 14.28126 | 1209 ft | 18 kts | 258° |
| 2026-05-01 12:31 | 50.09709 | 14.27929 | 1208 ft | 9 kts | 258° |
| 2026-05-01 12:31 | 50.09690 | 14.27778 | 1204 ft | 18 kts | 258° |
| 2026-05-01 12:31 | 50.09620 | 14.27662 | 1207 ft | 15 kts | 215° |
| 2026-05-01 12:31 | 50.09529 | 14.27555 | 1210 ft | 18 kts | 217° |
| 2026-05-01 12:32 | 50.09504 | 14.27526 | 1209 ft | 0 kts | 217° |
| 2026-05-01 12:34 | 50.09503 | 14.27525 | 1209 ft | 2 kts | 217° |
| 2026-05-01 12:34 | 50.09464 | 14.27479 | 1207 ft | 12 kts | 217° |
| 2026-05-01 12:34 | 50.09428 | 14.27375 | 1206 ft | 6 kts | 300° |
| 2026-05-01 12:34 | 50.09429 | 14.27372 | 1206 ft | 0 kts | 304° |
| 2026-05-01 12:35 | 50.09548 | 14.27124 | 1203 ft | 83 kts | 307° |
| 2026-05-01 12:35 | 50.10075 | 14.26031 | 1360 ft | 144 kts | 308° |
| 2026-05-01 12:35 | 50.10702 | 14.24758 | 2067 ft | 155 kts | 307° |
| 2026-05-01 12:35 | 50.11342 | 14.23233 | 2569 ft | 182 kts | 305° |
| 2026-05-01 12:36 | 50.12096 | 14.21473 | 3030 ft | 208 kts | 306° |
| 2026-05-01 12:36 | 50.12970 | 14.19460 | 3513 ft | 239 kts | 305° |
| 2026-05-01 12:36 | 50.13959 | 14.17213 | 4225 ft | 261 kts | 306° |
| 2026-05-01 12:36 | 50.14973 | 14.14915 | 4991 ft | 261 kts | 305° |
| 2026-05-01 12:37 | 50.16013 | 14.12549 | 4997 ft | 264 kts | 306° |
| 2026-05-01 12:37 | 50.17028 | 14.10206 | 4996 ft | 266 kts | 305° |
| 2026-05-01 12:37 | 50.18039 | 14.07900 | 4980 ft | 266 kts | 305° |